Data for 12/14/2008

Time Sea-Level Adjusted Pressure Absolute Pressure Temperature Relative Humidity Dew Point   
(mb) (inHg) (mb) (inHg) (C) (F) (%) (C) (F)
00:05 1012 29.88 841 24.83 -25.8 -14.4 75 -29 -20.1
00:10 1012 29.88 841 24.83 -25.9 -14.6 75 -29.1 -20.3
00:15 1012 29.88 842 24.86 -26 -14.8 75 -29.1 -20.5
00:20 1012 29.88 842 24.86 -26.1 -14.9 75 -29.2 -20.6
00:25 1012 29.88 842 24.86 -26.3 -15.3 74 -29.6 -21.3
00:30 1012 29.88 842 24.86 -26.5 -15.8 74 -29.8 -21.7
00:35 1012 29.88 842 24.86 -26.8 -16.2 73 -30.2 -22.3
00:40 1012 29.88 842 24.86 -26.9 -16.4 74 -30.3 -22.5
00:45 1012 29.88 842 24.86 -26.9 -16.5 73 -30.4 -22.7
00:50 1012 29.88 842 24.86 -27 -16.5 73 -30.4 -22.8
00:55 1012 29.88 842 24.86 -27 -16.6 73 -30.5 -22.8
01:00 1012 29.88 842 24.86 -27 -16.7 72 -30.6 -23.1
01:05 1012 29.88 842 24.86 -27.2 -17 73 -30.7 -23.2
01:10 1012 29.88 842 24.86 -27.3 -17.1 73 -30.7 -23.3
01:15 1012 29.88 842 24.86 -27.2 -16.9 73 -30.7 -23.3
01:20 1012 29.88 842 24.86 -27.2 -16.9 72 -30.7 -23.3
01:25 1013 29.91 842 24.86 -27.2 -16.9 72 -30.7 -23.3
01:30 1013 29.91 842 24.86 -27.2 -17 72 -30.9 -23.5
01:35 1012 29.88 842 24.86 -27.1 -16.8 72 -30.8 -23.4
01:40 1012 29.88 842 24.86 -27 -16.6 71 -30.8 -23.4
01:45 1012 29.88 842 24.86 -26.9 -16.3 72 -30.5 -22.8
01:50 1012 29.88 842 24.86 -26.8 -16.2 71 -30.5 -22.9
01:55 1012 29.88 842 24.86 -26.9 -16.5 71 -30.7 -23.2
02:00 1013 29.91 842 24.86 -27.1 -16.7 71 -30.8 -23.5
02:05 1013 29.91 842 24.86 -27.1 -16.8 71 -30.8 -23.5
02:10 1013 29.91 842 24.86 -27.1 -16.7 71 -30.8 -23.4
02:15 1013 29.91 842 24.86 -27 -16.5 72 -30.6 -23.2
02:20 1013 29.91 842 24.86 -26.8 -16.2 72 -30.4 -22.7
02:25 1013 29.91 842 24.86 -26.7 -16.1 70 -30.7 -23.2
02:30 1013 29.91 842 24.86 -26.7 -16.1 70 -30.6 -23.1
02:35 1013 29.91 842 24.86 -26.7 -16.1 70 -30.6 -23.1
02:40 1013 29.91 842 24.86 -26.8 -16.2 71 -30.6 -23.1
02:45 1013 29.91 842 24.86 -26.9 -16.4 70 -30.8 -23.5
02:50 1013 29.91 842 24.86 -27.1 -16.8 71 -31 -23.7
02:55 1013 29.91 842 24.86 -27.1 -16.7 70 -31 -23.8
03:00 1013 29.91 842 24.86 -26.9 -16.5 72 -30.6 -23
03:05 1013 29.91 842 24.86 -26.7 -16 72 -30.3 -22.6
03:10 1013 29.91 842 24.86 -26.6 -15.8 72 -30.2 -22.4
03:15 1013 29.91 842 24.86 -26.4 -15.5 73 -30 -21.9
03:20 1013 29.91 842 24.86 -26.3 -15.4 72 -29.9 -21.9
03:25 1013 29.91 842 24.86 -26.6 -15.9 72 -30.2 -22.4
03:30 1013 29.91 842 24.86 -26.8 -16.2 74 -30.2 -22.3
03:35 1013 29.91 842 24.86 -26.7 -16 74 -30 -22.1
03:40 1013 29.91 842 24.86 -26.5 -15.7 73 -30 -22.1
03:45 1013 29.91 842 24.86 -26.5 -15.6 75 -29.6 -21.3
03:50 1013 29.91 842 24.86 -26.1 -15 72 -29.8 -21.6
03:55 1013 29.91 842 24.86 -26.1 -15 72 -29.8 -21.7
04:00 1013 29.91 842 24.86 -26.1 -15 72 -29.7 -21.5
04:05 1013 29.91 842 24.86 -26.1 -14.9 71 -29.8 -21.6
04:10 1013 29.91 843 24.89 -25.9 -14.7 71 -29.8 -21.6
04:15 1013 29.91 843 24.89 -25.9 -14.6 72 -29.5 -21.1
04:20 1013 29.91 843 24.89 -25.8 -14.5 72 -29.5 -21.2
04:25 1013 29.91 842 24.86 -26 -14.7 74 -29.4 -20.8
04:30 1013 29.91 842 24.86 -25.7 -14.3 74 -29.1 -20.4
04:35 1013 29.91 842 24.86 -25.5 -14 72 -29.3 -20.7
04:40 1013 29.91 842 24.86 -25.8 -14.4 73 -29.3 -20.8
04:45 1013 29.91 843 24.89 -25.6 -14.1 73 -29.1 -20.3
04:50 1013 29.91 843 24.89 -25.5 -14 72 -29.2 -20.5
04:55 1013 29.91 843 24.89 -25.7 -14.2 73 -29.2 -20.5
05:00 1013 29.91 843 24.89 -25.7 -14.2 73 -29.2 -20.5
05:05 1013 29.91 843 24.89 -25.8 -14.5 74 -29.2 -20.6
05:10 1013 29.91 843 24.89 -25.7 -14.3 74 -29.1 -20.5
05:15 1013 29.91 843 24.89 -25.5 -13.9 75 -28.8 -19.8
05:20 1013 29.91 843 24.89 -25.5 -13.8 71 -29.2 -20.6
05:25 1013 29.91 843 24.89 -25.8 -14.5 73 -29.3 -20.8
05:30 1013 29.91 843 24.89 -25.7 -14.2 73 -29.1 -20.4
05:35 1013 29.91 843 24.89 -25.4 -13.8 71 -29.2 -20.6
05:40 1013 29.91 843 24.89 -25.7 -14.2 72 -29.3 -20.7
05:45 1014 29.94 843 24.89 -25.6 -14.1 72 -29.3 -20.8
05:50 1014 29.94 843 24.89 -25.5 -13.9 72 -29.2 -20.6
05:55 1014 29.94 843 24.89 -25.8 -14.4 73 -29.3 -20.7
06:00 1014 29.94 843 24.89 -25.7 -14.3 72 -29.4 -20.8
06:05 1014 29.94 843 24.89 -25.6 -14.1 71 -29.5 -21
06:10 1014 29.94 843 24.89 -25.5 -13.9 70 -29.4 -21
06:15 1014 29.94 843 24.89 -25.7 -14.3 70 -29.7 -21.5
06:20 1014 29.94 843 24.89 -25.8 -14.4 69 -29.8 -21.7
06:25 1014 29.94 843 24.89 -25.7 -14.3 70 -29.7 -21.5
06:30 1014 29.94 843 24.89 -25.7 -14.2 72 -29.4 -20.9
06:35 1014 29.94 843 24.89 -25.4 -13.6 69 -29.5 -21.1
06:40 1014 29.94 843 24.89 -25.4 -13.7 68 -29.6 -21.3
06:45 1014 29.94 843 24.89 -25.6 -14.1 72 -29.3 -20.7
06:50 1014 29.94 844 24.92 -25.3 -13.6 71 -29.1 -20.3
06:55 1014 29.94 844 24.92 -25.2 -13.4 70 -29.2 -20.6
07:00 1014 29.94 844 24.92 -25.3 -13.6 72 -28.9 -20.1
07:05 1014 29.94 844 24.92 -25.3 -13.5 68 -29.6 -21.2
07:10 1015 29.97 844 24.92 -25.5 -14 69 -29.7 -21.4
07:15 1015 29.97 844 24.92 -25.6 -14.1 71 -29.4 -20.9
07:20 1015 29.97 844 24.92 -25.5 -13.9 72 -29.2 -20.6
07:25 1015 29.97 844 24.92 -25.7 -14.2 71 -29.4 -20.9
07:30 1015 29.97 844 24.92 -25.8 -14.4 73 -29.3 -20.7
07:35 1015 29.97 844 24.92 -25.7 -14.3 74 -29.1 -20.4
07:40 1015 29.97 844 24.92 -25.5 -13.8 73 -29 -20.3
07:45 1015 29.97 844 24.92 -25.4 -13.8 71 -29.2 -20.6
07:50 1015 29.97 844 24.92 -25.5 -13.8 72 -29.2 -20.5
07:55 1015 29.97 844 24.92 -25.5 -13.9 72 -29.2 -20.5
08:00 1015 29.97 844 24.92 -25.5 -13.9 74 -28.8 -19.9
08:05 1015 29.97 844 24.92 -25.3 -13.5 72 -28.9 -20.1
08:10 1015 29.97 844 24.92 -25.3 -13.5 72 -29 -20.3
08:15 1015 29.97 844 24.92 -25.3 -13.6 72 -29 -20.3
08:20 1015 29.97 844 24.92 -25.4 -13.8 72 -29.1 -20.4
08:25 1015 29.97 844 24.92 -25.4 -13.8 73 -29 -20.2
08:30 1015 29.97 844 24.92 -25.4 -13.8 72 -29.1 -20.3
08:35 1015 29.97 844 24.92 -25.5 -13.8 71 -29.3 -20.8
08:40 1015 29.97 844 24.92 -25.4 -13.7 72 -29.1 -20.3
08:45 1015 29.97 844 24.92 -25.3 -13.6 71 -29.2 -20.5
08:50 1015 29.97 844 24.92 -25.4 -13.8 72 -29.1 -20.4
08:55 1015 29.97 844 24.92 -25.3 -13.5 72 -28.9 -20.1
09:00 1015 29.97 844 24.92 -25 -13 71 -28.9 -19.9
09:05 1015 29.97 845 24.95 -24.9 -12.9 71 -28.8 -19.8
09:10 1015 29.97 845 24.95 -24.9 -12.9 71 -28.8 -19.8
09:15 1015 29.97 845 24.95 -25 -12.9 72 -28.7 -19.6
09:20 1015 29.97 845 24.95 -24.9 -12.9 71 -28.8 -19.9
09:25 1015 29.97 845 24.95 -24.9 -12.9 70 -28.9 -20
09:30 1015 29.97 845 24.95 -25.2 -13.4 70 -29.2 -20.5
09:35 1015 29.97 845 24.95 -25.2 -13.3 70 -29.2 -20.6
09:40 1015 29.97 845 24.95 -25.2 -13.3 66 -29.8 -21.6
09:45 1016 30 845 24.95 -25.7 -14.3 69 -29.9 -21.9
09:50 1016 30 845 24.95 -25.7 -14.3 71 -29.5 -21
09:55 1016 30 845 24.95 -25.2 -13.4 70 -29.3 -20.7
10:00 1016 30 845 24.95 -25.2 -13.4 66 -29.8 -21.6
10:05 1016 30 845 24.95 -25.7 -14.3 69 -29.8 -21.7
10:10 1016 30 845 24.95 -25.3 -13.6 70 -29.3 -20.7
10:15 1016 30 845 24.95 -24.9 -12.8 69 -29.1 -20.4
10:20 1016 30 845 24.95 -24.5 -12.2 66 -29.1 -20.4
10:25 1016 30 845 24.95 -24.6 -12.3 64 -29.6 -21.3
10:30 1016 30 845 24.95 -24.7 -12.5 63 -30 -21.9
10:35 1016 30 845 24.95 -25 -12.9 66 -29.7 -21.4
10:40 1016 30 845 24.95 -24.7 -12.5 65 -29.5 -21.2
10:45 1016 30 845 24.95 -24.7 -12.4 64 -29.7 -21.5
10:50 1016 30 845 24.95 -24.7 -12.4 64 -29.6 -21.3
10:55 1016 30 845 24.95 -24.6 -12.3 63 -29.7 -21.5
11:00 1016 30 845 24.95 -24.5 -12.2 62 -29.8 -21.6
11:05 1016 30 845 24.95 -24.5 -12 62 -29.9 -21.7
11:10 1016 30 845 24.95 -24.6 -12.2 60 -30.2 -22.3
11:15 1016 30 845 24.95 -24.7 -12.4 60 -30.5 -22.8
11:20 1016 30 845 24.95 -24.8 -12.6 61 -30.2 -22.4
11:25 1016 30 845 24.95 -24.6 -12.2 59 -30.4 -22.6
11:30 1016 30 845 24.95 -24.5 -12 61 -30 -22.1
11:35 1016 30 845 24.95 -24.2 -11.5 59 -30.1 -22.2
11:40 1016 30 845 24.95 -24.2 -11.6 61 -29.8 -21.7
11:45 1016 30 845 24.95 -24.3 -11.7 63 -29.4 -21
11:50 1016 30 845 24.95 -24.4 -11.8 63 -29.5 -21.2
11:55 1016 30 845 24.95 -24.1 -11.3 62 -29.4 -21
12:00 1016 30 845 24.95 -23.6 -10.5 63 -28.9 -19.9
12:05 1016 30 845 24.95 -23.4 -10.1 60 -29.1 -20.3
12:10 1016 30 845 24.95 -23.9 -11.1 64 -29 -20.2
12:15 1016 30 845 24.95 -23.9 -11 62 -29.2 -20.6
12:20 1016 30 845 24.95 -23.7 -10.6 62 -29.1 -20.4
12:25 1016 30 845 24.95 -23.7 -10.6 61 -29.2 -20.6
12:30 1016 30 845 24.95 -24 -11.2 62 -29.4 -20.8
12:35 1016 30 845 24.95 -23.8 -10.8 59 -29.6 -21.3
12:40 1016 30 845 24.95 -23.5 -10.3 59 -29.4 -20.9
12:45 1016 30 845 24.95 -23.7 -10.7 59 -29.6 -21.2
12:50 1016 30 845 24.95 -24.4 -11.8 60 -30 -21.9
12:55 1016 30 845 24.95 -24.7 -12.5 62 -30 -21.9
13:00 1016 30 845 24.95 -24.5 -12.2 61 -30.1 -22.1
13:05 1016 30 845 24.95 -24.2 -11.6 63 -29.5 -21
13:10 1016 30 845 24.95 -24.1 -11.4 61 -29.7 -21.5
13:15 1016 30 845 24.95 -24.5 -12.1 63 -29.6 -21.4
13:20 1016 30 845 24.95 -24.4 -11.9 61 -29.9 -21.7
13:25 1016 30 845 24.95 -24.4 -11.8 61 -29.9 -21.9
13:30 1015 29.97 845 24.95 -24.6 -12.2 61 -30 -22.1
13:35 1015 29.97 845 24.95 -24.3 -11.8 62 -29.7 -21.4
13:40 1015 29.97 845 24.95 -24.6 -12.3 62 -29.9 -21.8
13:45 1015 29.97 845 24.95 -25 -13 64 -29.9 -21.9
13:50 1015 29.97 845 24.95 -25.1 -13.1 62 -30.4 -22.7
13:55 1015 29.97 845 24.95 -25.2 -13.4 65 -30.1 -22.1
14:00 1015 29.97 845 24.95 -25 -13 65 -29.8 -21.6
14:05 1015 29.97 845 24.95 -24.6 -12.3 62 -30 -22
14:10 1015 29.97 845 24.95 -24.5 -12 64 -29.5 -21.1
14:15 1016 30 845 24.95 -24.6 -12.3 62 -30 -22.1
14:20 1016 30 845 24.95 -24.8 -12.6 62 -30.1 -22.1
14:25 1016 30 845 24.95 -24.8 -12.7 61 -30.4 -22.7
14:30 1016 30 845 24.95 -24.8 -12.6 64 -29.8 -21.6
14:35 1016 30 845 24.95 -24.3 -11.7 61 -29.7 -21.5
14:40 1016 30 845 24.95 -24.2 -11.6 62 -29.6 -21.3
14:45 1016 30 845 24.95 -24.1 -11.4 61 -29.7 -21.4
14:50 1016 30 845 24.95 -24.2 -11.5 60 -30 -21.9
14:55 1016 30 845 24.95 -24.6 -12.3 64 -29.6 -21.2
15:00 1016 30 845 24.95 -24.5 -12 62 -29.7 -21.5
15:05 1016 30 845 24.95 -24.7 -12.4 64 -29.6 -21.3
15:10 1016 30 845 24.95 -24.7 -12.5 66 -29.3 -20.7
15:15 1016 30 845 24.95 -24.5 -12 65 -29.3 -20.8
15:20 1016 30 845 24.95 -24.3 -11.7 64 -29.3 -20.8
15:25 1016 30 845 24.95 -24.4 -11.9 62 -29.7 -21.5
15:30 1016 30 845 24.95 -24.6 -12.2 64 -29.5 -21.1
15:35 1016 30 845 24.95 -24.6 -12.2 61 -30 -22.1
15:40 1016 30 845 24.95 -25 -13 66 -29.7 -21.5
15:45 1016 30 845 24.95 -24.8 -12.6 64 -29.8 -21.6
15:50 1016 30 845 24.95 -24.8 -12.6 63 -29.9 -21.9
15:55 1016 30 845 24.95 -24.9 -12.9 63 -30.1 -22.3
16:00 1016 30 845 24.95 -25.1 -13.1 65 -29.8 -21.7
16:05 1016 30 845 24.95 -25.1 -13.3 65 -29.9 -21.9
16:10 1016 30 845 24.95 -25.3 -13.5 66 -29.8 -21.7
16:15 1016 30 845 24.95 -25 -13 65 -29.7 -21.5
16:20 1016 30 845 24.95 -25 -13 65 -29.8 -21.6
16:25 1016 30 845 24.95 -25 -12.9 67 -29.5 -21.1
16:30 1016 30 845 24.95 -24.8 -12.7 65 -29.7 -21.4
16:35 1016 30 846 24.98 -24.8 -12.6 65 -29.6 -21.2
16:40 1016 30 846 24.98 -24.7 -12.5 66 -29.3 -20.7
16:45 1016 30 846 24.98 -24.7 -12.5 65 -29.5 -21.1
16:50 1017 30.03 846 24.98 -24.8 -12.6 64 -29.8 -21.6
16:55 1017 30.03 846 24.98 -25 -12.9 63 -30 -22.1
17:00 1017 30.03 846 24.98 -25.1 -13.2 62 -30.4 -22.8
17:05 1017 30.03 846 24.98 -25.3 -13.5 64 -30.3 -22.5
17:10 1017 30.03 846 24.98 -25.3 -13.5 66 -29.9 -21.9
17:15 1017 30.03 846 24.98 -25.2 -13.3 65 -29.9 -21.8
17:20 1017 30.03 846 24.98 -25.3 -13.6 67 -29.8 -21.6
17:25 1017 30.03 846 24.98 -25.2 -13.3 67 -29.6 -21.3
17:30 1017 30.03 846 24.98 -25.2 -13.3 66 -29.8 -21.6
17:35 1017 30.03 846 24.98 -25.2 -13.3 67 -29.7 -21.4
17:40 1017 30.03 846 24.98 -25.2 -13.3 67 -29.6 -21.3
17:45 1017 30.03 846 24.98 -25.1 -13.2 66 -29.7 -21.4
17:50 1017 30.03 846 24.98 -25.2 -13.3 66 -29.8 -21.7
17:55 1017 30.03 846 24.98 -25.3 -13.5 65 -30 -22.1
18:00 1017 30.03 846 24.98 -25.3 -13.6 67 -29.8 -21.7
18:05 1017 30.03 846 24.98 -25.2 -13.4 66 -29.8 -21.7
18:10 1017 30.03 846 24.98 -25.3 -13.5 65 -30.1 -22.2
18:15 1017 30.03 846 24.98 -25.4 -13.6 65 -30.1 -22.1
18:20 1017 30.03 846 24.98 -25.4 -13.6 66 -30 -22
18:25 1017 30.03 846 24.98 -25.2 -13.4 66 -29.9 -21.8
18:30 1017 30.03 846 24.98 -25.3 -13.5 68 -29.5 -21.2
18:35 1017 30.03 846 24.98 -25.1 -13.2 67 -29.6 -21.3
18:40 1017 30.03 846 24.98 -25.3 -13.5 67 -29.7 -21.5
18:45 1017 30.03 846 24.98 -25.5 -13.8 68 -29.8 -21.7
18:50 1017 30.03 846 24.98 -25.4 -13.7 67 -29.9 -21.9
18:55 1017 30.03 846 24.98 -25.4 -13.8 67 -29.8 -21.7
19:00 1017 30.03 846 24.98 -25.3 -13.6 67 -29.9 -21.8
19:05 1017 30.03 846 24.98 -25.5 -13.9 67 -30 -22
19:10 1017 30.03 846 24.98 -25.5 -13.9 66 -30.1 -22.2
19:15 1017 30.03 846 24.98 -25.4 -13.8 67 -29.9 -21.9
19:20 1017 30.03 846 24.98 -25.4 -13.8 66 -30 -22
19:25 1017 30.03 846 24.98 -25.4 -13.8 67 -29.9 -21.7
19:30 1017 30.03 846 24.98 -25.6 -14.1 68 -29.9 -21.9
19:35 1017 30.03 846 24.98 -25.6 -14 69 -29.7 -21.5
19:40 1017 30.03 846 24.98 -25.4 -13.7 68 -29.7 -21.5
19:45 1017 30.03 846 24.98 -25.3 -13.5 68 -29.5 -21.2
19:50 1017 30.03 846 24.98 -25.2 -13.4 67 -29.8 -21.6
19:55 1017 30.03 846 24.98 -25.4 -13.7 66 -30 -22
20:00 1017 30.03 846 24.98 -25.5 -13.8 67 -29.9 -21.9
20:05 1017 30.03 846 24.98 -25.5 -13.8 67 -30 -22
20:10 1017 30.03 847 25.01 -25.4 -13.8 68 -29.7 -21.4
20:15 1017 30.03 847 25.01 -25.5 -13.9 68 -29.7 -21.5
20:20 1017 30.03 847 25.01 -25.5 -14 68 -29.9 -21.8
20:25 1017 30.03 847 25.01 -25.6 -14 69 -29.7 -21.5
20:30 1017 30.03 847 25.01 -25.6 -14 69 -29.7 -21.4
20:35 1017 30.03 847 25.01 -25.4 -13.8 70 -29.4 -20.9
20:40 1017 30.03 847 25.01 -25.5 -14 70 -29.6 -21.2
20:45 1017 30.03 847 25.01 -25.7 -14.3 69 -29.9 -21.8
20:50 1017 30.03 847 25.01 -25.8 -14.5 69 -30 -21.9
20:55 1017 30.03 847 25.01 -25.8 -14.4 69 -29.8 -21.7
21:00 1018 30.06 847 25.01 -25.7 -14.2 69 -29.8 -21.6
21:05 1018 30.06 847 25.01 -25.6 -14.2 72 -29.3 -20.8
21:10 1018 30.06 847 25.01 -25.4 -13.8 68 -29.8 -21.6
21:15 1018 30.06 847 25.01 -25.4 -13.7 69 -29.6 -21.3
21:20 1018 30.06 847 25.01 -25.5 -13.8 70 -29.5 -21.1
21:25 1018 30.06 847 25.01 -25.3 -13.6 70 -29.4 -20.9
21:30 1018 30.06 847 25.01 -25.2 -13.3 71 -28.9 -20.1
21:35 1018 30.06 847 25.01 -25 -13 69 -29.1 -20.4
21:40 1018 30.06 847 25.01 -25 -13 70 -29 -20.2
21:45 1018 30.06 847 25.01 -25 -13 70 -28.9 -20.1
21:50 1018 30.06 847 25.01 -25 -13.1 69 -29.1 -20.4
21:55 1018 30.06 847 25.01 -25.1 -13.2 70 -29.1 -20.3
22:00 1018 30.06 847 25.01 -25.3 -13.5 71 -29.1 -20.4
22:05 1018 30.06 847 25.01 -25.3 -13.5 70 -29.3 -20.7
22:10 1018 30.06 847 25.01 -25.2 -13.3 71 -29 -20.1
22:15 1018 30.06 847 25.01 -25 -13.1 70 -29 -20.1
22:20 1018 30.06 847 25.01 -25.1 -13.1 71 -28.9 -20
22:25 1018 30.06 847 25.01 -25 -13 71 -28.8 -19.8
22:30 1018 30.06 847 25.01 -25 -13 71 -28.8 -19.9
22:35 1018 30.06 847 25.01 -25 -13 72 -28.6 -19.5
22:40 1018 30.06 847 25.01 -25 -13.1 72 -28.7 -19.7
22:45 1018 30.06 847 25.01 -25.1 -13.2 72 -28.7 -19.7
22:50 1018 30.06 847 25.01 -25.1 -13.2 73 -28.7 -19.6
22:55 1018 30.06 847 25.01 -25.2 -13.4 73 -28.8 -19.9
23:00 1018 30.06 847 25.01 -25.2 -13.4 74 -28.5 -19.3
23:05 1018 30.06 847 25.01 -25.1 -13.2 73 -28.6 -19.5
23:10 1018 30.06 847 25.01 -25.1 -13.2 73 -28.6 -19.5
23:15 1018 30.06 847 25.01 -25.1 -13.2 73 -28.6 -19.5
23:20 1018 30.06 847 25.01 -25.2 -13.3 74 -28.5 -19.4
23:25 1018 30.06 848 25.04 -25.1 -13.2 74 -28.5 -19.2
23:30 1018 30.06 848 25.04 -25.1 -13.2 75 -28.4 -19.1
23:35 1018 30.06 848 25.04 -25.1 -13.1 75 -28.3 -19
23:40 1018 30.06 848 25.04 -25.1 -13.2 75 -28.4 -19.1
23:45 1018 30.06 848 25.04 -25.3 -13.6 75 -28.5 -19.3
23:50 1018 30.06 848 25.04 -25.4 -13.6 75 -28.5 -19.4
23:55 1018 30.06 848 25.04 -25.3 -13.5 76 -28.4 -19.1
24:00 1018 30.06 848 25.04 -25.1 -13.2 75 -28.4 -19.1